sensor_id;sensor_type;location;lat;lon;timestamp;P1;durP1;ratioP1;P2;durP2;ratioP2
80700;SDS011;71609;42.630;23.380;2024-01-15T00:01:59;14.73;;;7.63;;
80700;SDS011;71609;42.630;23.380;2024-01-15T00:04:25;15.43;;;8.05;;
80700;SDS011;71609;42.630;23.380;2024-01-15T00:06:50;15.35;;;7.55;;
80700;SDS011;71609;42.630;23.380;2024-01-15T00:09:16;15.82;;;8.32;;
80700;SDS011;71609;42.630;23.380;2024-01-15T00:11:42;15.05;;;7.18;;
80700;SDS011;71609;42.630;23.380;2024-01-15T00:14:08;14.10;;;7.75;;
80700;SDS011;71609;42.630;23.380;2024-01-15T00:16:34;13.23;;;7.30;;
80700;SDS011;71609;42.630;23.380;2024-01-15T00:19:00;16.85;;;7.88;;
80700;SDS011;71609;42.630;23.380;2024-01-15T00:21:25;14.80;;;6.93;;
80700;SDS011;71609;42.630;23.380;2024-01-15T00:23:53;14.85;;;7.63;;
80700;SDS011;71609;42.630;23.380;2024-01-15T00:26:18;13.15;;;7.03;;
80700;SDS011;71609;42.630;23.380;2024-01-15T00:28:44;15.82;;;7.68;;
80700;SDS011;71609;42.630;23.380;2024-01-15T00:31:10;15.43;;;7.95;;
80700;SDS011;71609;42.630;23.380;2024-01-15T00:33:36;14.85;;;7.55;;
80700;SDS011;71609;42.630;23.380;2024-01-15T00:36:01;14.45;;;7.68;;
80700;SDS011;71609;42.630;23.380;2024-01-15T00:38:28;13.38;;;7.13;;
80700;SDS011;71609;42.630;23.380;2024-01-15T00:40:54;14.18;;;7.47;;
80700;SDS011;71609;42.630;23.380;2024-01-15T00:43:20;14.18;;;7.68;;
80700;SDS011;71609;42.630;23.380;2024-01-15T00:45:46;14.95;;;7.40;;
80700;SDS011;71609;42.630;23.380;2024-01-15T00:48:12;13.98;;;7.65;;
80700;SDS011;71609;42.630;23.380;2024-01-15T00:50:37;14.35;;;6.95;;
80700;SDS011;71609;42.630;23.380;2024-01-15T00:53:03;15.88;;;7.85;;
80700;SDS011;71609;42.630;23.380;2024-01-15T00:55:29;14.23;;;7.28;;
80700;SDS011;71609;42.630;23.380;2024-01-15T00:57:55;13.43;;;7.82;;
80700;SDS011;71609;42.630;23.380;2024-01-15T01:00:20;13.68;;;7.75;;
80700;SDS011;71609;42.630;23.380;2024-01-15T01:02:46;11.70;;;6.63;;
80700;SDS011;71609;42.630;23.380;2024-01-15T01:05:12;16.60;;;8.05;;
80700;SDS011;71609;42.630;23.380;2024-01-15T01:07:38;15.07;;;7.00;;
80700;SDS011;71609;42.630;23.380;2024-01-15T01:10:04;14.13;;;7.63;;
80700;SDS011;71609;42.630;23.380;2024-01-15T01:12:30;12.25;;;7.00;;
80700;SDS011;71609;42.630;23.380;2024-01-15T01:14:56;13.48;;;6.82;;
80700;SDS011;71609;42.630;23.380;2024-01-15T01:17:22;16.17;;;7.75;;
80700;SDS011;71609;42.630;23.380;2024-01-15T01:19:48;14.45;;;7.60;;
80700;SDS011;71609;42.630;23.380;2024-01-15T01:22:14;14.88;;;7.47;;
80700;SDS011;71609;42.630;23.380;2024-01-15T01:24:40;13.40;;;7.10;;
80700;SDS011;71609;42.630;23.380;2024-01-15T01:27:06;13.77;;;7.07;;
80700;SDS011;71609;42.630;23.380;2024-01-15T01:29:32;13.88;;;6.63;;
80700;SDS011;71609;42.630;23.380;2024-01-15T01:31:58;13.23;;;7.55;;
80700;SDS011;71609;42.630;23.380;2024-01-15T01:34:23;16.02;;;7.65;;
80700;SDS011;71609;42.630;23.380;2024-01-15T01:36:49;13.98;;;7.60;;
80700;SDS011;71609;42.630;23.380;2024-01-15T01:39:15;13.30;;;6.97;;
80700;SDS011;71609;42.630;23.380;2024-01-15T01:41:41;13.52;;;7.32;;
80700;SDS011;71609;42.630;23.380;2024-01-15T01:44:06;13.98;;;7.30;;
80700;SDS011;71609;42.630;23.380;2024-01-15T01:46:32;12.63;;;7.13;;
80700;SDS011;71609;42.630;23.380;2024-01-15T01:48:59;15.07;;;8.07;;
80700;SDS011;71609;42.630;23.380;2024-01-15T01:51:30;15.38;;;7.72;;
80700;SDS011;71609;42.630;23.380;2024-01-15T01:53:56;14.43;;;7.50;;
80700;SDS011;71609;42.630;23.380;2024-01-15T01:56:22;14.48;;;7.18;;
80700;SDS011;71609;42.630;23.380;2024-01-15T01:58:48;13.55;;;6.75;;
80700;SDS011;71609;42.630;23.380;2024-01-15T02:01:14;14.60;;;7.68;;
80700;SDS011;71609;42.630;23.380;2024-01-15T02:03:41;14.35;;;7.32;;
80700;SDS011;71609;42.630;23.380;2024-01-15T02:06:06;16.27;;;7.63;;
80700;SDS011;71609;42.630;23.380;2024-01-15T02:08:33;15.05;;;7.53;;
80700;SDS011;71609;42.630;23.380;2024-01-15T02:10:59;12.82;;;7.22;;
80700;SDS011;71609;42.630;23.380;2024-01-15T02:13:25;14.80;;;7.13;;
80700;SDS011;71609;42.630;23.380;2024-01-15T02:15:51;13.50;;;7.22;;
80700;SDS011;71609;42.630;23.380;2024-01-15T02:18:17;15.68;;;7.60;;
80700;SDS011;71609;42.630;23.380;2024-01-15T02:20:43;13.63;;;7.22;;
80700;SDS011;71609;42.630;23.380;2024-01-15T02:23:09;15.82;;;7.38;;
80700;SDS011;71609;42.630;23.380;2024-01-15T02:25:37;14.65;;;6.85;;
80700;SDS011;71609;42.630;23.380;2024-01-15T02:28:11;12.98;;;7.57;;
80700;SDS011;71609;42.630;23.380;2024-01-15T02:30:41;14.13;;;7.20;;
80700;SDS011;71609;42.630;23.380;2024-01-15T02:33:09;14.38;;;6.82;;
80700;SDS011;71609;42.630;23.380;2024-01-15T02:35:35;13.40;;;7.00;;
80700;SDS011;71609;42.630;23.380;2024-01-15T02:38:02;14.30;;;7.13;;
80700;SDS011;71609;42.630;23.380;2024-01-15T02:40:28;15.85;;;7.75;;
80700;SDS011;71609;42.630;23.380;2024-01-15T02:42:54;13.32;;;7.07;;
80700;SDS011;71609;42.630;23.380;2024-01-15T02:45:20;14.88;;;7.05;;
80700;SDS011;71609;42.630;23.380;2024-01-15T02:47:47;15.45;;;7.32;;
80700;SDS011;71609;42.630;23.380;2024-01-15T02:50:12;14.27;;;7.13;;
80700;SDS011;71609;42.630;23.380;2024-01-15T02:52:39;13.80;;;7.03;;
80700;SDS011;71609;42.630;23.380;2024-01-15T02:55:05;14.73;;;7.10;;
80700;SDS011;71609;42.630;23.380;2024-01-15T02:57:31;13.40;;;6.93;;
80700;SDS011;71609;42.630;23.380;2024-01-15T02:59:56;13.85;;;6.82;;
80700;SDS011;71609;42.630;23.380;2024-01-15T03:02:22;15.90;;;6.90;;
80700;SDS011;71609;42.630;23.380;2024-01-15T03:04:48;12.68;;;6.70;;
80700;SDS011;71609;42.630;23.380;2024-01-15T03:07:14;11.65;;;6.60;;
80700;SDS011;71609;42.630;23.380;2024-01-15T03:09:39;13.23;;;6.28;;
80700;SDS011;71609;42.630;23.380;2024-01-15T03:12:06;11.98;;;6.60;;
80700;SDS011;71609;42.630;23.380;2024-01-15T03:14:32;12.02;;;6.65;;
80700;SDS011;71609;42.630;23.380;2024-01-15T03:16:57;12.45;;;6.60;;
80700;SDS011;71609;42.630;23.380;2024-01-15T03:19:23;12.32;;;6.80;;
80700;SDS011;71609;42.630;23.380;2024-01-15T03:21:49;13.48;;;7.22;;
80700;SDS011;71609;42.630;23.380;2024-01-15T03:24:15;15.93;;;6.78;;
80700;SDS011;71609;42.630;23.380;2024-01-15T03:26:40;12.77;;;6.68;;
80700;SDS011;71609;42.630;23.380;2024-01-15T03:29:06;13.25;;;7.07;;
80700;SDS011;71609;42.630;23.380;2024-01-15T03:31:33;14.27;;;7.22;;
80700;SDS011;71609;42.630;23.380;2024-01-15T03:33:58;13.82;;;6.88;;
80700;SDS011;71609;42.630;23.380;2024-01-15T03:36:25;13.45;;;7.30;;
80700;SDS011;71609;42.630;23.380;2024-01-15T03:38:51;13.98;;;6.50;;
80700;SDS011;71609;42.630;23.380;2024-01-15T03:41:16;15.00;;;6.93;;
80700;SDS011;71609;42.630;23.380;2024-01-15T03:43:42;12.77;;;6.53;;
80700;SDS011;71609;42.630;23.380;2024-01-15T03:46:08;13.02;;;6.97;;
80700;SDS011;71609;42.630;23.380;2024-01-15T03:48:33;12.23;;;6.13;;
80700;SDS011;71609;42.630;23.380;2024-01-15T03:50:59;13.30;;;6.18;;
80700;SDS011;71609;42.630;23.380;2024-01-15T03:53:25;13.27;;;6.38;;
80700;SDS011;71609;42.630;23.380;2024-01-15T03:55:51;13.90;;;6.80;;
80700;SDS011;71609;42.630;23.380;2024-01-15T03:58:17;11.93;;;6.35;;
80700;SDS011;71609;42.630;23.380;2024-01-15T04:00:43;15.52;;;7.45;;
80700;SDS011;71609;42.630;23.380;2024-01-15T04:03:09;11.93;;;6.53;;
80700;SDS011;71609;42.630;23.380;2024-01-15T04:05:35;13.07;;;6.57;;
80700;SDS011;71609;42.630;23.380;2024-01-15T04:08:00;14.15;;;6.78;;
80700;SDS011;71609;42.630;23.380;2024-01-15T04:10:26;12.95;;;5.97;;
80700;SDS011;71609;42.630;23.380;2024-01-15T04:12:52;13.25;;;6.75;;
80700;SDS011;71609;42.630;23.380;2024-01-15T04:15:18;13.20;;;6.85;;
80700;SDS011;71609;42.630;23.380;2024-01-15T04:17:44;13.27;;;6.90;;
80700;SDS011;71609;42.630;23.380;2024-01-15T04:20:10;13.20;;;6.45;;
80700;SDS011;71609;42.630;23.380;2024-01-15T04:22:36;13.82;;;6.35;;
80700;SDS011;71609;42.630;23.380;2024-01-15T04:25:02;11.70;;;6.32;;
80700;SDS011;71609;42.630;23.380;2024-01-15T04:27:28;13.65;;;6.32;;
80700;SDS011;71609;42.630;23.380;2024-01-15T04:29:54;11.98;;;6.30;;
80700;SDS011;71609;42.630;23.380;2024-01-15T04:32:20;15.65;;;6.68;;
80700;SDS011;71609;42.630;23.380;2024-01-15T04:34:46;12.30;;;6.22;;
80700;SDS011;71609;42.630;23.380;2024-01-15T04:37:13;13.90;;;6.95;;
80700;SDS011;71609;42.630;23.380;2024-01-15T04:39:39;13.15;;;6.50;;
80700;SDS011;71609;42.630;23.380;2024-01-15T04:42:05;12.75;;;6.35;;
80700;SDS011;71609;42.630;23.380;2024-01-15T04:44:30;14.07;;;6.82;;
80700;SDS011;71609;42.630;23.380;2024-01-15T04:46:56;13.85;;;7.15;;
80700;SDS011;71609;42.630;23.380;2024-01-15T04:49:22;12.77;;;6.90;;
80700;SDS011;71609;42.630;23.380;2024-01-15T04:51:48;15.18;;;7.03;;
80700;SDS011;71609;42.630;23.380;2024-01-15T04:54:13;11.88;;;6.78;;
80700;SDS011;71609;42.630;23.380;2024-01-15T04:56:43;12.75;;;6.57;;
80700;SDS011;71609;42.630;23.380;2024-01-15T04:59:11;11.60;;;6.53;;
80700;SDS011;71609;42.630;23.380;2024-01-15T05:01:39;12.25;;;6.53;;
80700;SDS011;71609;42.630;23.380;2024-01-15T05:04:05;12.18;;;6.80;;
80700;SDS011;71609;42.630;23.380;2024-01-15T05:06:31;16.42;;;7.50;;
80700;SDS011;71609;42.630;23.380;2024-01-15T05:08:56;18.48;;;8.25;;
80700;SDS011;71609;42.630;23.380;2024-01-15T05:11:22;26.58;;;8.80;;
80700;SDS011;71609;42.630;23.380;2024-01-15T05:13:48;21.85;;;9.00;;
80700;SDS011;71609;42.630;23.380;2024-01-15T05:16:14;19.85;;;9.30;;
80700;SDS011;71609;42.630;23.380;2024-01-15T05:18:40;20.92;;;9.35;;
80700;SDS011;71609;42.630;23.380;2024-01-15T05:21:05;21.52;;;9.38;;
80700;SDS011;71609;42.630;23.380;2024-01-15T05:23:31;18.58;;;8.40;;
80700;SDS011;71609;42.630;23.380;2024-01-15T05:25:57;20.27;;;9.15;;
80700;SDS011;71609;42.630;23.380;2024-01-15T05:28:23;19.23;;;9.15;;
80700;SDS011;71609;42.630;23.380;2024-01-15T05:30:49;19.38;;;9.48;;
80700;SDS011;71609;42.630;23.380;2024-01-15T05:33:16;18.52;;;8.95;;
80700;SDS011;71609;42.630;23.380;2024-01-15T05:35:42;18.27;;;9.20;;
80700;SDS011;71609;42.630;23.380;2024-01-15T05:38:08;19.95;;;8.95;;
80700;SDS011;71609;42.630;23.380;2024-01-15T05:40:34;19.50;;;9.80;;
80700;SDS011;71609;42.630;23.380;2024-01-15T05:42:59;23.52;;;10.82;;
80700;SDS011;71609;42.630;23.380;2024-01-15T05:45:29;23.83;;;9.45;;
80700;SDS011;71609;42.630;23.380;2024-01-15T05:47:55;21.67;;;9.13;;
80700;SDS011;71609;42.630;23.380;2024-01-15T05:50:21;22.65;;;10.55;;
80700;SDS011;71609;42.630;23.380;2024-01-15T05:52:47;18.30;;;9.50;;
80700;SDS011;71609;42.630;23.380;2024-01-15T05:55:13;22.67;;;10.02;;
80700;SDS011;71609;42.630;23.380;2024-01-15T05:57:39;22.83;;;11.23;;
80700;SDS011;71609;42.630;23.380;2024-01-15T06:00:05;23.85;;;11.20;;
80700;SDS011;71609;42.630;23.380;2024-01-15T06:02:31;24.02;;;9.82;;
80700;SDS011;71609;42.630;23.380;2024-01-15T06:07:34;25.25;;;11.45;;
80700;SDS011;71609;42.630;23.380;2024-01-15T06:10:00;20.80;;;11.23;;
80700;SDS011;71609;42.630;23.380;2024-01-15T06:12:27;27.58;;;10.90;;
80700;SDS011;71609;42.630;23.380;2024-01-15T06:14:53;22.80;;;9.18;;
80700;SDS011;71609;42.630;23.380;2024-01-15T06:17:19;18.50;;;9.63;;
80700;SDS011;71609;42.630;23.380;2024-01-15T06:19:45;21.05;;;9.48;;
80700;SDS011;71609;42.630;23.380;2024-01-15T06:22:10;20.83;;;9.73;;
80700;SDS011;71609;42.630;23.380;2024-01-15T06:24:36;22.58;;;10.63;;
80700;SDS011;71609;42.630;23.380;2024-01-15T06:27:02;25.75;;;10.60;;
80700;SDS011;71609;42.630;23.380;2024-01-15T06:29:28;24.27;;;11.20;;
80700;SDS011;71609;42.630;23.380;2024-01-15T06:31:55;24.42;;;10.40;;
80700;SDS011;71609;42.630;23.380;2024-01-15T06:37:08;24.10;;;11.70;;
80700;SDS011;71609;42.630;23.380;2024-01-15T06:39:34;35.78;;;11.32;;
80700;SDS011;71609;42.630;23.380;2024-01-15T06:41:59;27.45;;;11.52;;
80700;SDS011;71609;42.630;23.380;2024-01-15T06:44:25;27.65;;;9.70;;
80700;SDS011;71609;42.630;23.380;2024-01-15T06:46:51;22.83;;;9.75;;
80700;SDS011;71609;42.630;23.380;2024-01-15T06:49:17;24.17;;;10.15;;
80700;SDS011;71609;42.630;23.380;2024-01-15T06:51:42;20.55;;;10.38;;
80700;SDS011;71609;42.630;23.380;2024-01-15T06:54:08;20.52;;;10.27;;
80700;SDS011;71609;42.630;23.380;2024-01-15T06:56:34;30.17;;;9.85;;
80700;SDS011;71609;42.630;23.380;2024-01-15T06:59:00;21.45;;;11.15;;
80700;SDS011;71609;42.630;23.380;2024-01-15T07:01:26;21.27;;;9.88;;
80700;SDS011;71609;42.630;23.380;2024-01-15T07:03:51;25.17;;;11.70;;
80700;SDS011;71609;42.630;23.380;2024-01-15T07:06:17;24.70;;;11.38;;
80700;SDS011;71609;42.630;23.380;2024-01-15T07:08:43;30.38;;;12.93;;
80700;SDS011;71609;42.630;23.380;2024-01-15T07:11:09;25.25;;;11.52;;
80700;SDS011;71609;42.630;23.380;2024-01-15T07:13:37;30.67;;;11.52;;
80700;SDS011;71609;42.630;23.380;2024-01-15T07:16:03;30.47;;;11.70;;
80700;SDS011;71609;42.630;23.380;2024-01-15T07:18:29;31.08;;;11.75;;
80700;SDS011;71609;42.630;23.380;2024-01-15T07:20:55;31.08;;;11.77;;
80700;SDS011;71609;42.630;23.380;2024-01-15T07:23:21;24.02;;;10.95;;
80700;SDS011;71609;42.630;23.380;2024-01-15T07:25:47;23.42;;;9.18;;
80700;SDS011;71609;42.630;23.380;2024-01-15T07:28:13;25.80;;;9.50;;
80700;SDS011;71609;42.630;23.380;2024-01-15T07:30:39;26.88;;;10.85;;
80700;SDS011;71609;42.630;23.380;2024-01-15T07:33:05;27.08;;;9.98;;
80700;SDS011;71609;42.630;23.380;2024-01-15T07:35:31;25.45;;;9.30;;
80700;SDS011;71609;42.630;23.380;2024-01-15T07:37:57;34.65;;;10.75;;
80700;SDS011;71609;42.630;23.380;2024-01-15T07:40:23;30.52;;;10.75;;
80700;SDS011;71609;42.630;23.380;2024-01-15T07:42:50;34.85;;;9.57;;
80700;SDS011;71609;42.630;23.380;2024-01-15T07:45:16;30.17;;;10.15;;
80700;SDS011;71609;42.630;23.380;2024-01-15T07:47:42;36.42;;;10.20;;
80700;SDS011;71609;42.630;23.380;2024-01-15T07:50:09;41.00;;;9.82;;
80700;SDS011;71609;42.630;23.380;2024-01-15T07:52:35;34.95;;;10.30;;
80700;SDS011;71609;42.630;23.380;2024-01-15T07:55:01;39.00;;;10.82;;
80700;SDS011;71609;42.630;23.380;2024-01-15T07:57:28;48.85;;;9.73;;
80700;SDS011;71609;42.630;23.380;2024-01-15T07:59:54;31.35;;;10.90;;
80700;SDS011;71609;42.630;23.380;2024-01-15T08:02:20;38.88;;;10.23;;
80700;SDS011;71609;42.630;23.380;2024-01-15T08:04:46;25.42;;;10.23;;
80700;SDS011;71609;42.630;23.380;2024-01-15T08:07:12;26.73;;;10.23;;
80700;SDS011;71609;42.630;23.380;2024-01-15T08:09:38;30.17;;;9.45;;
80700;SDS011;71609;42.630;23.380;2024-01-15T08:12:04;21.33;;;8.70;;
80700;SDS011;71609;42.630;23.380;2024-01-15T08:14:31;19.75;;;8.70;;
80700;SDS011;71609;42.630;23.380;2024-01-15T08:16:57;30.25;;;10.15;;
80700;SDS011;71609;42.630;23.380;2024-01-15T08:19:22;20.50;;;8.77;;
80700;SDS011;71609;42.630;23.380;2024-01-15T08:21:48;30.17;;;8.98;;
80700;SDS011;71609;42.630;23.380;2024-01-15T08:24:14;25.00;;;9.27;;
80700;SDS011;71609;42.630;23.380;2024-01-15T08:26:40;31.63;;;9.80;;
80700;SDS011;71609;42.630;23.380;2024-01-15T08:29:06;23.02;;;9.05;;
80700;SDS011;71609;42.630;23.380;2024-01-15T08:31:32;26.55;;;9.13;;
80700;SDS011;71609;42.630;23.380;2024-01-15T08:33:57;34.25;;;9.93;;
80700;SDS011;71609;42.630;23.380;2024-01-15T08:36:24;33.22;;;8.45;;
80700;SDS011;71609;42.630;23.380;2024-01-15T08:38:50;35.55;;;10.57;;
80700;SDS011;71609;42.630;23.380;2024-01-15T08:41:16;34.03;;;8.65;;
80700;SDS011;71609;42.630;23.380;2024-01-15T08:43:42;21.73;;;8.20;;
80700;SDS011;71609;42.630;23.380;2024-01-15T08:46:08;30.52;;;8.30;;
80700;SDS011;71609;42.630;23.380;2024-01-15T08:48:34;26.35;;;8.35;;
80700;SDS011;71609;42.630;23.380;2024-01-15T08:50:59;26.45;;;8.10;;
80700;SDS011;71609;42.630;23.380;2024-01-15T08:53:25;28.38;;;9.05;;
80700;SDS011;71609;42.630;23.380;2024-01-15T08:55:52;27.27;;;8.18;;
